createdAt,value
2023-03-11T00:01:01.000Z,0
2023-03-11T00:02:32.000Z,0
2023-03-11T00:04:02.000Z,0
2023-03-11T00:05:19.000Z,0
2023-03-11T00:06:36.000Z,0
2023-03-11T00:08:07.000Z,0
2023-03-11T00:09:37.000Z,0
2023-03-11T00:11:08.000Z,0
2023-03-11T00:12:38.000Z,0
2023-03-11T00:14:09.000Z,0
2023-03-11T00:15:39.000Z,0
2023-03-11T00:17:10.000Z,0
2023-03-11T00:18:40.000Z,0
2023-03-11T00:20:11.000Z,0
2023-03-11T00:21:28.000Z,0
2023-03-11T00:22:45.000Z,0
2023-03-11T00:24:15.000Z,0
2023-03-11T00:25:46.000Z,0
2023-03-11T00:27:16.000Z,0
2023-03-11T00:28:47.000Z,0
2023-03-11T00:30:17.000Z,0
2023-03-11T00:31:48.000Z,0
2023-03-11T00:33:18.000Z,0
2023-03-11T00:34:49.000Z,0
2023-03-11T00:36:19.000Z,0
2023-03-11T00:37:36.000Z,0
2023-03-11T00:38:53.000Z,0
2023-03-11T00:40:24.000Z,0
2023-03-11T00:41:54.000Z,0
2023-03-11T00:43:25.000Z,0
2023-03-11T00:44:55.000Z,0
2023-03-11T00:46:26.000Z,0
2023-03-11T00:47:56.000Z,0
2023-03-11T00:49:27.000Z,0
2023-03-11T00:50:57.000Z,0
2023-03-11T00:52:28.000Z,0
2023-03-11T00:53:45.000Z,0
2023-03-11T00:55:02.000Z,0
2023-03-11T00:56:32.000Z,0
2023-03-11T00:58:03.000Z,0
2023-03-11T00:59:33.000Z,0
2023-03-11T01:01:04.000Z,0
2023-03-11T01:02:34.000Z,0
2023-03-11T01:04:05.000Z,0
2023-03-11T01:05:35.000Z,0
2023-03-11T01:07:06.000Z,0
2023-03-11T01:08:36.000Z,0
2023-03-11T01:09:53.000Z,0
2023-03-11T01:11:10.000Z,0
2023-03-11T01:12:41.000Z,0
2023-03-11T01:14:11.000Z,0
2023-03-11T01:15:42.000Z,0
2023-03-11T01:17:12.000Z,0
2023-03-11T01:18:43.000Z,0
2023-03-11T01:20:14.000Z,0
2023-03-11T01:21:44.000Z,0
2023-03-11T01:23:15.000Z,0
2023-03-11T01:24:45.000Z,0
2023-03-11T01:26:02.000Z,0
2023-03-11T01:27:19.000Z,0
2023-03-11T01:28:50.000Z,0
2023-03-11T01:30:20.000Z,0
2023-03-11T01:31:51.000Z,0
2023-03-11T01:33:21.000Z,0
2023-03-11T01:34:52.000Z,0
2023-03-11T01:36:22.000Z,0
2023-03-11T01:37:53.000Z,0
2023-03-11T01:39:23.000Z,0
2023-03-11T01:40:54.000Z,0
2023-03-11T01:42:11.000Z,0
2023-03-11T01:43:28.000Z,0
2023-03-11T01:44:58.000Z,0
2023-03-11T01:46:29.000Z,0
2023-03-11T01:47:59.000Z,0
2023-03-11T01:49:30.000Z,0
2023-03-11T01:51:00.000Z,0
2023-03-11T01:52:31.000Z,0
2023-03-11T01:54:01.000Z,0
2023-03-11T01:55:32.000Z,0
2023-03-11T01:57:02.000Z,0
2023-03-11T01:58:19.000Z,0
2023-03-11T01:59:36.000Z,0
2023-03-11T02:01:07.000Z,0
2023-03-11T02:02:45.000Z,0
2023-03-11T02:04:16.000Z,0
2023-03-11T02:05:46.000Z,0
2023-03-11T02:07:17.000Z,0
2023-03-11T02:08:47.000Z,0
2023-03-11T02:10:18.000Z,0
2023-03-11T02:11:48.000Z,0
2023-03-11T02:13:19.000Z,0
2023-03-11T02:14:36.000Z,0
2023-03-11T02:15:53.000Z,0
2023-03-11T02:17:23.000Z,0
2023-03-11T02:18:54.000Z,0
2023-03-11T02:20:24.000Z,0
2023-03-11T02:21:55.000Z,0
2023-03-11T02:23:25.000Z,0
2023-03-11T02:24:56.000Z,0
2023-03-11T02:26:26.000Z,0
2023-03-11T02:27:57.000Z,0
2023-03-11T02:29:27.000Z,0
2023-03-11T02:30:44.000Z,0
2023-03-11T02:32:01.000Z,0
2023-03-11T02:35:02.000Z,0
2023-03-11T02:36:33.000Z,0
2023-03-11T02:38:03.000Z,0
2023-03-11T02:39:34.000Z,0
2023-03-11T02:41:04.000Z,0
2023-03-11T02:42:35.000Z,0
2023-03-11T02:44:05.000Z,0
2023-03-11T02:45:36.000Z,0
2023-03-11T02:46:53.000Z,0
2023-03-11T02:48:10.000Z,0
2023-03-11T02:49:40.000Z,0
2023-03-11T02:51:11.000Z,0
2023-03-11T02:52:41.000Z,0
2023-03-11T02:54:12.000Z,0
2023-03-11T02:55:43.000Z,0
2023-03-11T02:57:13.000Z,0
2023-03-11T02:58:44.000Z,0
2023-03-11T03:00:14.000Z,0
2023-03-11T03:01:45.000Z,0
2023-03-11T03:03:02.000Z,0
2023-03-11T03:04:18.000Z,0
2023-03-11T03:05:49.000Z,0
2023-03-11T03:07:20.000Z,0
2023-03-11T03:08:50.000Z,0
2023-03-11T03:10:21.000Z,0
2023-03-11T03:11:51.000Z,0
2023-03-11T03:13:22.000Z,0
2023-03-11T03:14:52.000Z,0
2023-03-11T03:16:23.000Z,0
2023-03-11T03:17:53.000Z,0
2023-03-11T03:19:10.000Z,0
2023-03-11T03:20:27.000Z,0
2023-03-11T03:21:57.000Z,0
2023-03-11T03:23:28.000Z,0
2023-03-11T03:24:58.000Z,0
2023-03-11T03:26:29.000Z,0
2023-03-11T03:27:59.000Z,0
2023-03-11T03:29:30.000Z,0
2023-03-11T03:31:00.000Z,0
2023-03-11T03:32:31.000Z,0
2023-03-11T03:34:01.000Z,0
2023-03-11T03:35:18.000Z,0
2023-03-11T03:36:35.000Z,0
2023-03-11T03:38:06.000Z,0
2023-03-11T03:39:36.000Z,0
2023-03-11T03:41:07.000Z,0
2023-03-11T03:42:37.000Z,0
2023-03-11T03:44:08.000Z,0
2023-03-11T03:45:38.000Z,0
2023-03-11T03:47:09.000Z,0
2023-03-11T03:48:39.000Z,0
2023-03-11T03:50:10.000Z,0
2023-03-11T03:51:27.000Z,0
2023-03-11T03:52:44.000Z,0
2023-03-11T03:54:14.000Z,0
2023-03-11T03:55:45.000Z,0
2023-03-11T03:57:15.000Z,0
2023-03-11T03:58:46.000Z,0
2023-03-11T04:00:16.000Z,0
2023-03-11T04:01:47.000Z,0
2023-03-11T04:03:17.000Z,0
2023-03-11T04:04:48.000Z,0
2023-03-11T04:06:18.000Z,0
2023-03-11T04:07:35.000Z,0
2023-03-11T04:08:52.000Z,0
2023-03-11T04:10:23.000Z,0
2023-03-11T04:11:53.000Z,0
2023-03-11T04:13:24.000Z,0
2023-03-11T04:14:54.000Z,0
2023-03-11T04:16:25.000Z,0
2023-03-11T04:17:55.000Z,0
2023-03-11T04:19:26.000Z,0
2023-03-11T04:20:56.000Z,0
2023-03-11T04:22:27.000Z,0
2023-03-11T04:23:44.000Z,0
2023-03-11T04:25:00.000Z,0
2023-03-11T04:26:31.000Z,0
2023-03-11T04:28:01.000Z,0
2023-03-11T04:29:32.000Z,0
2023-03-11T04:31:02.000Z,0
2023-03-11T04:32:33.000Z,0
2023-03-11T04:34:03.000Z,0
2023-03-11T04:35:34.000Z,0
2023-03-11T04:37:04.000Z,0
2023-03-11T04:39:52.000Z,0
2023-03-11T04:41:09.000Z,0
2023-03-11T04:42:39.000Z,0
2023-03-11T04:44:10.000Z,0
2023-03-11T04:45:40.000Z,0
2023-03-11T04:47:11.000Z,0
2023-03-11T04:48:42.000Z,0
2023-03-11T04:50:12.000Z,0
2023-03-11T04:51:43.000Z,0
2023-03-11T04:53:13.000Z,0
2023-03-11T04:54:44.000Z,0
2023-03-11T04:56:01.000Z,0
2023-03-11T04:57:18.000Z,0
2023-03-11T04:58:48.000Z,0
2023-03-11T05:00:19.000Z,0
2023-03-11T05:01:49.000Z,0
2023-03-11T05:03:20.000Z,0
2023-03-11T05:04:50.000Z,0
2023-03-11T05:07:51.000Z,0
2023-03-11T05:09:22.000Z,0
2023-03-11T05:10:52.000Z,0
2023-03-11T05:12:09.000Z,0
2023-03-11T05:13:26.000Z,0
2023-03-11T05:14:57.000Z,0
2023-03-11T05:16:27.000Z,0
2023-03-11T05:17:58.000Z,0
2023-03-11T05:19:28.000Z,0
2023-03-11T05:20:59.000Z,0
2023-03-11T05:22:29.000Z,0
2023-03-11T05:24:00.000Z,0
2023-03-11T05:25:30.000Z,4
2023-03-11T05:27:01.000Z,0
2023-03-11T05:28:18.000Z,4
2023-03-11T05:29:35.000Z,4
2023-03-11T05:31:05.000Z,4
2023-03-11T05:32:36.000Z,8
2023-03-11T05:34:06.000Z,12
2023-03-11T05:35:37.000Z,16
2023-03-11T05:37:07.000Z,24
2023-03-11T05:38:38.000Z,32
2023-03-11T05:40:08.000Z,44
2023-03-11T05:41:39.000Z,56
2023-03-11T05:43:09.000Z,76
2023-03-11T05:44:26.000Z,92
2023-03-11T05:45:43.000Z,112
2023-03-11T05:47:13.000Z,136
2023-03-11T05:48:44.000Z,164
2023-03-11T05:50:14.000Z,196
2023-03-11T05:51:45.000Z,232
2023-03-11T05:53:15.000Z,268
2023-03-11T05:54:46.000Z,308
2023-03-11T05:56:16.000Z,352
2023-03-11T05:57:47.000Z,400
2023-03-11T05:59:17.000Z,448
2023-03-11T06:00:34.000Z,508
2023-03-11T06:01:51.000Z,552
2023-03-11T06:03:22.000Z,604
2023-03-11T06:04:52.000Z,672
2023-03-11T06:06:23.000Z,744
2023-03-11T06:07:53.000Z,812
2023-03-11T06:09:24.000Z,888
2023-03-11T06:10:54.000Z,980
2023-03-11T06:12:25.000Z,1064
2023-03-11T06:13:55.000Z,1136
2023-03-11T06:15:26.000Z,1336
2023-03-11T06:16:43.000Z,2884
2023-03-11T06:18:00.000Z,3232
2023-03-11T06:19:30.000Z,2468
2023-03-11T06:21:01.000Z,3180
2023-03-11T06:22:31.000Z,2024
2023-03-11T06:24:02.000Z,2572
2023-03-11T06:25:32.000Z,2068
2023-03-11T06:27:03.000Z,2752
2023-03-11T06:28:33.000Z,4468
2023-03-11T06:30:04.000Z,5100
2023-03-11T06:31:34.000Z,3116
2023-03-11T06:34:08.000Z,5444
2023-03-11T06:35:39.000Z,5348
2023-03-11T06:37:09.000Z,4664
2023-03-11T06:38:40.000Z,8904
2023-03-11T06:40:10.000Z,8932
2023-03-11T06:41:41.000Z,4524
2023-03-11T06:43:11.000Z,3492
2023-03-11T06:44:42.000Z,3856
2023-03-11T06:46:12.000Z,3444
2023-03-11T06:47:43.497Z,3036
2023-03-11T06:49:00.000Z,3452
2023-03-11T06:51:47.000Z,3508
2023-03-11T06:53:18.000Z,4032
2023-03-11T06:54:48.000Z,3292
2023-03-11T06:56:19.000Z,3760
2023-03-11T06:57:50.000Z,4764
2023-03-11T06:59:28.000Z,4936
2023-03-11T07:00:59.000Z,5140
2023-03-11T07:02:29.000Z,8556
2023-03-11T07:04:00.000Z,6920
2023-03-11T07:05:17.000Z,9140
2023-03-11T07:06:34.000Z,10384
2023-03-11T07:11:05.000Z,7396
2023-03-11T07:12:36.000Z,7964
2023-03-11T07:14:06.000Z,9356
2023-03-11T07:15:37.000Z,14396
2023-03-11T07:17:07.000Z,20416
2023-03-11T07:18:38.000Z,43904
2023-03-11T07:20:08.000Z,39264
2023-03-11T07:21:25.000Z,36960
2023-03-11T07:22:42.000Z,38816
2023-03-11T07:24:13.000Z,27680
2023-03-11T07:25:43.000Z,27648
2023-03-11T07:27:14.000Z,34880
2023-03-11T07:28:44.000Z,46208
2023-03-11T07:30:15.000Z,37440
2023-03-11T07:31:45.000Z,18304
2023-03-11T07:33:16.000Z,10608
2023-03-11T07:34:46.000Z,16064
2023-03-11T07:36:17.000Z,46752
2023-03-11T07:37:34.000Z,43296
2023-03-11T07:38:51.000Z,17024
2023-03-11T07:40:21.000Z,17824
2023-03-11T07:43:22.000Z,21344
2023-03-11T07:44:53.000Z,26080
2023-03-11T07:46:23.000Z,18464
2023-03-11T07:49:24.000Z,44512
2023-03-11T07:50:55.000Z,44256
2023-03-11T07:52:25.000Z,41440
2023-03-11T07:53:42.000Z,34432
2023-03-11T07:54:59.000Z,33600
2023-03-11T07:56:30.000Z,35616
2023-03-11T07:58:00.000Z,43712
2023-03-11T07:59:31.000Z,64960
2023-03-11T08:01:01.000Z,63808
2023-03-11T08:02:32.000Z,60800
2023-03-11T08:04:02.000Z,56416
2023-03-11T08:05:33.000Z,52416
2023-03-11T08:07:03.000Z,70304
2023-03-11T08:08:34.000Z,70976
2023-03-11T08:09:51.000Z,91840
2023-03-11T08:11:08.000Z,93408
2023-03-11T08:12:38.000Z,89280
2023-03-11T08:14:09.000Z,95520
2023-03-11T08:15:39.000Z,94304
2023-03-11T08:17:10.000Z,88960
2023-03-11T08:18:40.000Z,90976
2023-03-11T08:20:11.000Z,84192
2023-03-11T08:21:41.000Z,83040
2023-03-11T08:23:12.000Z,43424
2023-03-11T08:25:59.000Z,92448
2023-03-11T08:28:47.000Z,68832
2023-03-11T08:30:17.000Z,87456
2023-03-11T08:31:48.000Z,98944
2023-03-11T08:33:18.000Z,90944
2023-03-11T08:36:19.000Z,80384
2023-03-11T08:37:50.000Z,16288
2023-03-11T08:39:20.000Z,76544
2023-03-11T08:40:51.000Z,87200
2023-03-11T08:42:08.000Z,29696
2023-03-11T08:43:25.000Z,13792
2023-03-11T08:44:55.000Z,15332
2023-03-11T08:46:26.000Z,99680
2023-03-11T08:49:27.000Z,49536
2023-03-11T08:50:57.000Z,81792
2023-03-11T08:52:28.000Z,97600
2023-03-11T08:53:58.000Z,97408
2023-03-11T08:56:59.000Z,97312
2023-03-11T08:58:16.000Z,93824
2023-03-11T08:59:33.000Z,89120
2023-03-11T09:01:04.000Z,93472
2023-03-11T09:02:34.000Z,92896
2023-03-11T09:04:05.000Z,92864
2023-03-11T09:05:35.000Z,106080
2023-03-11T09:07:06.000Z,96224
2023-03-11T09:08:36.000Z,104000
2023-03-11T09:10:07.000Z,104384
2023-03-11T09:11:37.000Z,103392
2023-03-11T09:13:08.000Z,97312
2023-03-11T09:14:25.000Z,68256
2023-03-11T09:15:42.000Z,24704
2023-03-11T09:17:12.000Z,59744
2023-03-11T09:18:43.000Z,83136
2023-03-11T09:20:13.000Z,87104
2023-03-11T09:21:44.000Z,90304
2023-03-11T09:23:14.000Z,33280
2023-03-11T09:24:45.000Z,87712
2023-03-11T09:26:15.000Z,98208
2023-03-11T09:27:46.000Z,95072
2023-03-11T09:29:16.000Z,91744
2023-03-11T09:30:33.000Z,101344
2023-03-11T09:33:21.000Z,101568
2023-03-11T09:34:51.000Z,95648
2023-03-11T09:36:22.000Z,94368
2023-03-11T09:37:52.000Z,94496
2023-03-11T09:39:23.000Z,91328
2023-03-11T09:40:53.000Z,95360
2023-03-11T09:42:24.000Z,92352
2023-03-11T09:43:54.000Z,78368
2023-03-11T09:45:25.000Z,91296
2023-03-11T09:46:42.000Z,77568
2023-03-11T09:47:59.000Z,79936
2023-03-11T09:49:29.000Z,93056
2023-03-11T09:51:00.000Z,67456
2023-03-11T09:52:30.000Z,97280
2023-03-11T09:54:01.000Z,94368
2023-03-11T09:55:31.000Z,94112
2023-03-11T09:57:02.000Z,95552
2023-03-11T09:58:32.000Z,96608
2023-03-11T10:00:03.000Z,75424
2023-03-11T10:02:50.000Z,88576
2023-03-11T10:04:07.000Z,87392
2023-03-11T10:05:38.000Z,90816
2023-03-11T10:07:08.000Z,93472
2023-03-11T10:08:39.000Z,89824
2023-03-11T10:10:09.000Z,83840
2023-03-11T10:11:40.000Z,73024
2023-03-11T10:13:10.000Z,24320
2023-03-11T10:14:41.000Z,38656
2023-03-11T10:16:11.000Z,40224
2023-03-11T10:17:42.000Z,41376
2023-03-11T10:18:59.000Z,47104
2023-03-11T10:20:16.000Z,46976
2023-03-11T10:21:46.000Z,37632
2023-03-11T10:23:17.000Z,42432
2023-03-11T10:24:47.000Z,54368
2023-03-11T10:26:18.000Z,49152
2023-03-11T10:27:48.000Z,44992
2023-03-11T10:29:19.000Z,68096
2023-03-11T10:30:49.000Z,77760
2023-03-11T10:32:20.000Z,80384
2023-03-11T10:35:07.000Z,69664
2023-03-11T10:36:24.000Z,74016
2023-03-11T10:37:54.000Z,66976
2023-03-11T10:39:25.000Z,38528
2023-03-11T10:40:55.000Z,72864
2023-03-11T10:42:26.000Z,59744
2023-03-11T10:43:57.000Z,62688
2023-03-11T10:46:58.000Z,40544
2023-03-11T10:48:28.000Z,35040
2023-03-11T10:49:59.000Z,41920
2023-03-11T10:51:16.000Z,61888
2023-03-11T10:52:32.000Z,61312
2023-03-11T10:54:03.000Z,9376
2023-03-11T10:55:34.000Z,9292
2023-03-11T10:57:04.000Z,41184
2023-03-11T10:58:35.000Z,30464
2023-03-11T11:00:05.000Z,12296
2023-03-11T11:01:36.000Z,30304
2023-03-11T11:03:06.000Z,28448
2023-03-11T11:04:37.000Z,37888
2023-03-11T11:06:07.000Z,50496
2023-03-11T11:07:24.000Z,11940
2023-03-11T11:08:41.000Z,8852
2023-03-11T11:10:12.000Z,12260
2023-03-11T11:11:42.000Z,38880
2023-03-11T11:13:13.000Z,41216
2023-03-11T11:14:43.000Z,49152
2023-03-11T11:16:14.000Z,30976
2023-03-11T11:17:44.000Z,12144
2023-03-11T11:19:15.000Z,14996
2023-03-11T11:20:45.000Z,29664
2023-03-11T11:22:16.000Z,26848
2023-03-11T11:23:33.000Z,13536
2023-03-11T11:24:50.000Z,16224
2023-03-11T11:26:20.000Z,17504
2023-03-11T11:27:51.000Z,12584
2023-03-11T11:29:21.000Z,13468
2023-03-11T11:30:52.000Z,13304
2023-03-11T11:32:22.000Z,12844
2023-03-11T11:33:53.000Z,12164
2023-03-11T11:35:23.000Z,13100
2023-03-11T11:36:54.000Z,14184
2023-03-11T11:38:24.000Z,14528
2023-03-11T11:39:41.000Z,14504
2023-03-11T11:40:58.000Z,14656
2023-03-11T11:42:29.000Z,16000
2023-03-11T11:43:59.000Z,14796
2023-03-11T11:45:30.000Z,13976
2023-03-11T11:47:00.000Z,12400
2023-03-11T11:48:31.000Z,10840
2023-03-11T11:50:01.000Z,11260
2023-03-11T11:51:32.000Z,12256
2023-03-11T11:53:02.000Z,10732
2023-03-11T11:54:41.000Z,11676
2023-03-11T11:55:58.000Z,11712
2023-03-11T11:57:15.000Z,12308
2023-03-11T11:58:45.000Z,12268
2023-03-11T12:00:16.000Z,12108
2023-03-11T12:01:46.000Z,9960
2023-03-11T12:03:17.000Z,9252
2023-03-11T12:04:47.000Z,10760
2023-03-11T12:06:18.000Z,10388
2023-03-11T12:07:48.000Z,10912
2023-03-11T12:09:19.000Z,10656
2023-03-11T12:10:49.000Z,9780
2023-03-11T12:12:06.000Z,10268
2023-03-11T12:13:23.000Z,10904
2023-03-11T12:14:53.000Z,11144
2023-03-11T12:16:24.000Z,10220
2023-03-11T12:17:55.000Z,10476
2023-03-11T12:19:25.000Z,10584
2023-03-11T12:20:56.000Z,10500
2023-03-11T12:22:26.000Z,10228
2023-03-11T12:23:57.000Z,9532
2023-03-11T12:25:27.000Z,9780
2023-03-11T12:26:58.000Z,7672
2023-03-11T12:28:15.000Z,7412
2023-03-11T12:29:32.000Z,7476
2023-03-11T12:31:02.000Z,8648
2023-03-11T12:32:33.000Z,8192
2023-03-11T12:35:34.000Z,7816
2023-03-11T12:37:04.000Z,8204
2023-03-11T12:38:35.000Z,9588
2023-03-11T12:40:05.000Z,9016
2023-03-11T12:41:36.000Z,10320
2023-03-11T12:43:06.000Z,8528
2023-03-11T12:44:23.000Z,7644
2023-03-11T12:45:40.000Z,6804
2023-03-11T12:47:11.000Z,6580
2023-03-11T12:48:41.000Z,6668
2023-03-11T12:50:12.000Z,6908
2023-03-11T12:51:42.000Z,7584
2023-03-11T12:53:13.000Z,11376
2023-03-11T12:54:43.000Z,10720
2023-03-11T12:56:14.000Z,8848
2023-03-11T12:57:44.000Z,9248
2023-03-11T12:59:15.000Z,8904
2023-03-11T13:00:32.000Z,7696
2023-03-11T13:01:49.000Z,9436
2023-03-11T13:03:19.000Z,9608
2023-03-11T13:04:50.000Z,9744
2023-03-11T13:06:20.000Z,9200
2023-03-11T13:07:51.000Z,8276
2023-03-11T13:09:21.000Z,8272
2023-03-11T13:10:52.000Z,8048
2023-03-11T13:12:22.000Z,7604
2023-03-11T13:13:53.000Z,7012
2023-03-11T13:15:23.000Z,6536
2023-03-11T13:16:40.000Z,6364
2023-03-11T13:17:57.000Z,5864
2023-03-11T13:19:28.000Z,5576
2023-03-11T13:20:58.000Z,5400
2023-03-11T13:22:29.000Z,5368
2023-03-11T13:23:59.000Z,5832
2023-03-11T13:25:30.000Z,5892
2023-03-11T13:27:00.000Z,6420
2023-03-11T13:28:31.000Z,6448
2023-03-11T13:30:01.000Z,4616
2023-03-11T13:31:32.000Z,6176
2023-03-11T13:32:48.000Z,4020
2023-03-11T13:34:05.000Z,5204
2023-03-11T13:35:36.000Z,5932
2023-03-11T13:37:06.000Z,5980
2023-03-11T13:38:37.000Z,3564
2023-03-11T13:40:07.000Z,3764
2023-03-11T13:41:38.000Z,5332
2023-03-11T13:43:08.000Z,6728
2023-03-11T13:44:39.000Z,6792
2023-03-11T13:46:09.000Z,6544
2023-03-11T13:47:40.000Z,6772
2023-03-11T13:48:57.000Z,6808
2023-03-11T13:50:14.000Z,6052
2023-03-11T13:51:44.000Z,6676
2023-03-11T13:53:15.000Z,6340
2023-03-11T13:54:45.000Z,5956
2023-03-11T13:56:16.000Z,5424
2023-03-11T13:57:46.000Z,4996
2023-03-11T13:59:17.000Z,4776
2023-03-11T14:00:47.000Z,4576
2023-03-11T14:02:18.000Z,4520
2023-03-11T14:03:48.000Z,4552
2023-03-11T14:05:05.000Z,4648
2023-03-11T14:06:22.000Z,5072
2023-03-11T14:07:53.000Z,5380
2023-03-11T14:09:23.000Z,5088
2023-03-11T14:12:24.000Z,5148
2023-03-11T14:13:55.000Z,3116
2023-03-11T14:15:25.000Z,4100
2023-03-11T14:16:56.000Z,3404
2023-03-11T14:18:26.000Z,2772
2023-03-11T14:19:57.000Z,3352
2023-03-11T14:21:14.000Z,3744
2023-03-11T14:22:31.000Z,3740
2023-03-11T14:24:01.000Z,2724
2023-03-11T14:25:32.000Z,2624
2023-03-11T14:27:02.000Z,2684
2023-03-11T14:28:33.000Z,4852
2023-03-11T14:30:04.000Z,5148
2023-03-11T14:31:34.000Z,5576
2023-03-11T14:33:05.000Z,5284
2023-03-11T14:34:35.000Z,4064
2023-03-11T14:36:06.000Z,5956
2023-03-11T14:37:23.000Z,2952
2023-03-11T14:38:40.000Z,2964
2023-03-11T14:40:10.000Z,3008
2023-03-11T14:41:41.000Z,4656
2023-03-11T14:43:11.000Z,3584
2023-03-11T14:44:42.000Z,3904
2023-03-11T14:46:12.000Z,2892
2023-03-11T14:47:43.000Z,3012
2023-03-11T14:49:13.000Z,3008
2023-03-11T14:50:44.000Z,2908
2023-03-11T14:52:14.000Z,2908
2023-03-11T14:53:31.000Z,3140
2023-03-11T14:54:48.000Z,3608
2023-03-11T14:56:19.000Z,2840
2023-03-11T14:57:49.000Z,2880
2023-03-11T14:59:20.000Z,3596
2023-03-11T15:00:50.000Z,4132
2023-03-11T15:02:21.000Z,4136
2023-03-11T15:03:51.000Z,2940
2023-03-11T15:05:22.000Z,2872
2023-03-11T15:06:52.000Z,2732
2023-03-11T15:08:23.000Z,3296
2023-03-11T15:09:40.000Z,3720
2023-03-11T15:10:57.000Z,2764
2023-03-11T15:12:27.000Z,3648
2023-03-11T15:13:58.000Z,3676
2023-03-11T15:15:28.000Z,3708
2023-03-11T15:16:59.000Z,3476
2023-03-11T15:18:29.000Z,3556
2023-03-11T15:20:00.000Z,3456
2023-03-11T15:21:30.000Z,3480
2023-03-11T15:23:01.000Z,3428
2023-03-11T15:24:31.000Z,3408
2023-03-11T15:25:48.000Z,3292
2023-03-11T15:27:05.000Z,3152
2023-03-11T15:28:35.000Z,2952
2023-03-11T15:30:06.000Z,2820
2023-03-11T15:31:36.000Z,2740
2023-03-11T15:33:07.000Z,2772
2023-03-11T15:34:37.000Z,2680
2023-03-11T15:36:08.000Z,2576
2023-03-11T15:37:38.000Z,2608
2023-03-11T15:39:09.000Z,2624
2023-03-11T15:40:39.000Z,2596
2023-03-11T15:41:56.000Z,2736
2023-03-11T15:43:13.000Z,2816
2023-03-11T15:44:44.000Z,2800
2023-03-11T15:46:14.000Z,2724
2023-03-11T15:47:45.000Z,2764
2023-03-11T15:49:15.000Z,2708
2023-03-11T15:50:46.000Z,2556
2023-03-11T15:52:16.000Z,2528
2023-03-11T15:53:47.000Z,2352
2023-03-11T15:55:17.000Z,2248
2023-03-11T15:56:48.000Z,2196
2023-03-11T15:58:05.000Z,2108
2023-03-11T15:59:22.000Z,2012
2023-03-11T16:00:52.000Z,1836
2023-03-11T16:02:23.000Z,1812
2023-03-11T16:03:53.000Z,1916
2023-03-11T16:05:24.000Z,1712
2023-03-11T16:08:25.000Z,1680
2023-03-11T16:09:55.000Z,1732
2023-03-11T16:11:26.000Z,1720
2023-03-11T16:12:56.000Z,1652
2023-03-11T16:14:13.000Z,1596
2023-03-11T16:15:30.000Z,1580
2023-03-11T16:17:01.000Z,1580
2023-03-11T16:18:31.000Z,1564
2023-03-11T16:20:02.000Z,1488
2023-03-11T16:21:32.000Z,1388
2023-03-11T16:23:03.000Z,1368
2023-03-11T16:24:33.000Z,1400
2023-03-11T16:26:04.000Z,1400
2023-03-11T16:27:34.000Z,1380
2023-03-11T16:29:05.000Z,1344
2023-03-11T16:30:22.000Z,1332
2023-03-11T16:31:39.000Z,1300
2023-03-11T16:33:09.000Z,1212
2023-03-11T16:36:10.000Z,1056
2023-03-11T16:37:41.000Z,1056
2023-03-11T16:39:11.000Z,1040
2023-03-11T16:40:42.000Z,1004
2023-03-11T16:42:12.000Z,964
2023-03-11T16:43:43.000Z,972
2023-03-11T16:45:13.000Z,1020
2023-03-11T16:46:30.000Z,1036
2023-03-11T16:47:47.000Z,1044
2023-03-11T16:49:26.000Z,1052
2023-03-11T16:50:56.000Z,1036
2023-03-11T16:52:27.000Z,936
2023-03-11T16:53:57.000Z,908
2023-03-11T16:55:28.000Z,908
2023-03-11T16:56:58.000Z,908
2023-03-11T16:58:29.000Z,876
2023-03-11T16:59:59.000Z,832
2023-03-11T17:01:30.000Z,768
2023-03-11T17:02:47.000Z,688
2023-03-11T17:04:04.000Z,620
2023-03-11T17:05:34.000Z,588
2023-03-11T17:07:05.000Z,544
2023-03-11T17:08:35.000Z,508
2023-03-11T17:10:06.000Z,472
2023-03-11T17:11:36.000Z,440
2023-03-11T17:13:07.000Z,408
2023-03-11T17:14:37.000Z,376
2023-03-11T17:16:08.000Z,340
2023-03-11T17:17:38.000Z,308
2023-03-11T17:18:55.000Z,276
2023-03-11T17:20:12.000Z,248
2023-03-11T17:21:43.000Z,220
2023-03-11T17:23:13.000Z,188
2023-03-11T17:24:44.000Z,164
2023-03-11T17:26:14.000Z,136
2023-03-11T17:27:45.000Z,112
2023-03-11T17:30:46.000Z,72
2023-03-11T17:32:16.000Z,56
2023-03-11T17:33:47.000Z,48
2023-03-11T17:35:04.000Z,36
2023-03-11T17:36:21.000Z,32
2023-03-11T17:37:51.000Z,28
2023-03-11T17:39:22.000Z,24
2023-03-11T17:40:52.000Z,16
2023-03-11T17:43:53.000Z,12
2023-03-11T17:45:24.000Z,8
2023-03-11T17:46:54.000Z,4
2023-03-11T17:48:25.000Z,4
2023-03-11T17:49:55.000Z,4
2023-03-11T17:51:12.000Z,0
2023-03-11T17:52:29.000Z,0
2023-03-11T17:54:00.000Z,4
2023-03-11T17:55:30.000Z,0
2023-03-11T17:57:01.000Z,0
2023-03-11T17:58:31.000Z,0
2023-03-11T18:00:02.000Z,0
2023-03-11T18:01:32.000Z,0
2023-03-11T18:03:03.000Z,0
2023-03-11T18:04:34.000Z,0
2023-03-11T18:06:04.000Z,0
2023-03-11T18:07:21.000Z,0
2023-03-11T18:08:38.000Z,0
2023-03-11T18:10:08.000Z,0
2023-03-11T18:11:39.000Z,0
2023-03-11T18:13:10.000Z,0
2023-03-11T18:14:40.000Z,0
2023-03-11T18:16:11.000Z,0
2023-03-11T18:17:41.000Z,0
2023-03-11T18:19:12.000Z,0
2023-03-11T18:20:42.000Z,0
2023-03-11T18:22:13.000Z,0
2023-03-11T18:23:30.000Z,0
2023-03-11T18:24:47.000Z,0
2023-03-11T18:26:17.000Z,0
2023-03-11T18:27:48.000Z,0
2023-03-11T18:29:18.000Z,0
2023-03-11T18:30:49.000Z,0
2023-03-11T18:32:19.000Z,0
2023-03-11T18:33:50.000Z,0
2023-03-11T18:35:20.000Z,0
2023-03-11T18:36:51.000Z,0
2023-03-11T18:38:21.000Z,0
2023-03-11T18:39:38.000Z,0
2023-03-11T18:40:55.000Z,0
2023-03-11T18:42:26.000Z,0
2023-03-11T18:43:56.000Z,0
2023-03-11T18:45:27.000Z,0
2023-03-11T18:46:57.000Z,0
2023-03-11T18:48:28.000Z,0
2023-03-11T18:49:58.000Z,0
2023-03-11T18:51:29.000Z,0
2023-03-11T18:52:59.000Z,0
2023-03-11T18:54:30.000Z,0
2023-03-11T18:55:47.000Z,0
2023-03-11T18:57:04.000Z,0
2023-03-11T18:58:34.000Z,0
2023-03-11T19:00:05.000Z,0
2023-03-11T19:01:35.000Z,0
2023-03-11T19:03:06.000Z,0
2023-03-11T19:04:36.000Z,0
2023-03-11T19:06:07.000Z,0
2023-03-11T19:07:37.000Z,0
2023-03-11T19:09:08.000Z,0
2023-03-11T19:10:38.000Z,0
2023-03-11T19:11:55.000Z,0
2023-03-11T19:13:12.000Z,0
2023-03-11T19:14:43.000Z,0
2023-03-11T19:16:13.000Z,0
2023-03-11T19:17:44.000Z,0
2023-03-11T19:19:14.000Z,0
2023-03-11T19:20:45.000Z,0
2023-03-11T19:22:15.000Z,0
2023-03-11T19:23:46.000Z,0
2023-03-11T19:25:16.000Z,0
2023-03-11T19:28:04.000Z,0
2023-03-11T19:29:21.000Z,0
2023-03-11T19:30:51.000Z,0
2023-03-11T19:32:22.000Z,0
2023-03-11T19:33:52.000Z,0
2023-03-11T19:35:23.000Z,0
2023-03-11T19:36:53.000Z,0
2023-03-11T19:38:24.000Z,0
2023-03-11T19:39:54.000Z,0
2023-03-11T19:41:25.000Z,0
2023-03-11T19:44:12.000Z,0
2023-03-11T19:45:29.000Z,0
2023-03-11T19:47:00.000Z,0
2023-03-11T19:48:30.000Z,0
2023-03-11T19:50:01.000Z,0
2023-03-11T19:51:31.000Z,0
2023-03-11T19:53:02.000Z,0
2023-03-11T19:54:32.000Z,0
2023-03-11T19:56:03.000Z,0
2023-03-11T19:57:33.000Z,0
2023-03-11T19:59:04.000Z,0
2023-03-11T20:00:21.000Z,0
2023-03-11T20:01:37.000Z,0
2023-03-11T20:03:08.000Z,0
2023-03-11T20:04:38.000Z,0
2023-03-11T20:06:09.000Z,0
2023-03-11T20:07:39.000Z,0
2023-03-11T20:09:10.000Z,0
2023-03-11T20:10:40.000Z,0
2023-03-11T20:12:11.000Z,0
2023-03-11T20:13:42.000Z,0
2023-03-11T20:15:12.000Z,0
2023-03-11T20:16:29.000Z,0
2023-03-11T20:17:46.000Z,0
2023-03-11T20:19:16.000Z,0
2023-03-11T20:20:47.000Z,0
2023-03-11T20:22:18.000Z,0
2023-03-11T20:23:48.000Z,0
2023-03-11T20:25:19.000Z,0
2023-03-11T20:26:49.000Z,0
2023-03-11T20:28:20.000Z,0
2023-03-11T20:29:50.000Z,0
2023-03-11T20:31:21.000Z,0
2023-03-11T20:32:38.000Z,0
2023-03-11T20:33:55.000Z,0
2023-03-11T20:35:25.000Z,0
2023-03-11T20:36:56.000Z,0
2023-03-11T20:38:26.000Z,0
2023-03-11T20:39:57.000Z,0
2023-03-11T20:41:27.000Z,0
2023-03-11T20:42:58.000Z,0
2023-03-11T20:44:28.000Z,0
2023-03-11T20:45:59.000Z,0
2023-03-11T20:47:29.000Z,0
2023-03-11T20:48:46.000Z,0
2023-03-11T20:50:03.000Z,0
2023-03-11T20:51:34.000Z,0
2023-03-11T20:53:04.000Z,0
2023-03-11T20:54:35.000Z,0
2023-03-11T20:56:05.000Z,0